TimePST,TemperatureF,Dew PointF,Humidity,Sea Level PressureIn,VisibilityMPH,Wind Direction,Wind SpeedMPH,Gust SpeedMPH,PrecipitationIn,Events,Conditions,WindDirDegrees,DateUTC
12:56 AM,52.0,50.0,93,29.58,7.0,Calm,Calm,-,0.07,Rain,Light Rain,0,2012-12-14 08:56:00
1:56 AM,52.0,48.9,89,29.58,10.0,SW,4.6,-,0.03,Rain,Light Rain,230,2012-12-14 09:56:00
3:56 AM,50.0,46.0,86,29.59,10.0,WSW,6.9,-,0.07,Rain,Light Rain,250,2012-12-14 11:56:00
4:56 AM,50.0,45.0,83,29.61,10.0,WSW,10.4,-,0.03,Rain,Light Rain,240,2012-12-14 12:56:00
5:56 AM,50.0,44.1,80,29.65,10.0,West,11.5,-,0.07,Rain,Light Rain,280,2012-12-14 13:56:00
6:56 AM,48.9,46.0,90,29.69,9.0,SSW,9.2,-,0.10,Rain,Light Rain,210,2012-12-14 14:56:00
7:56 AM,50.0,45.0,83,29.72,10.0,SW,8.1,-,0.03,Rain,Light Rain,220,2012-12-14 15:56:00
8:56 AM,52.0,43.0,71,29.76,10.0,WSW,4.6,-,0.01,,Overcast,250,2012-12-14 16:56:00
10:56 AM,55.9,39.0,53,29.80,10.0,SW,12.7,19.6,N/A,,Overcast,230,2012-12-14 18:56:00
11:56 AM,57.0,43.0,59,29.79,10.0,SSW,13.8,18.4,N/A,,Overcast,200,2012-12-14 19:56:00
12:56 PM,57.9,41.0,53,29.80,10.0,South,12.7,-,N/A,,Clear,190,2012-12-14 20:56:00
1:56 PM,57.9,39.0,49,29.81,10.0,SSW,11.5,-,N/A,,Scattered Clouds,200,2012-12-14 21:56:00
2:56 PM,57.0,39.0,51,29.82,10.0,South,10.4,-,N/A,,Mostly Cloudy,180,2012-12-14 22:56:00
3:56 PM,57.0,39.9,53,29.83,10.0,South,10.4,-,N/A,,Scattered Clouds,190,2012-12-14 23:56:00
4:56 PM,55.9,37.0,49,29.84,10.0,SSW,16.1,21.9,N/A,,Mostly Cloudy,200,2012-12-15 00:56:00
5:56 PM,55.0,37.0,51,29.86,10.0,SSW,19.6,26.5,N/A,,Scattered Clouds,200,2012-12-15 01:56:00
6:56 PM,55.0,39.0,55,29.88,10.0,SSW,13.8,-,N/A,,Clear,200,2012-12-15 02:56:00
7:56 PM,55.0,39.9,57,29.88,10.0,South,15.0,-,N/A,,Overcast,190,2012-12-15 03:56:00
8:56 PM,51.1,39.0,63,29.90,10.0,West,17.3,-,0.00,Rain,Light Rain,260,2012-12-15 04:56:00
10:56 PM,48.9,45.0,86,29.93,10.0,South,4.6,-,0.02,Rain,Light Rain,190,2012-12-15 06:56:00
11:56 PM,48.9,45.0,86,29.91,10.0,Calm,Calm,-,0.01,,Overcast,0,2012-12-15 07:56:00